createdAt,value
2023-04-15T00:01:55.766Z,147013.00
2023-04-15T00:04:31.753Z,148140.38
2023-04-15T00:07:01.122Z,149018.44
2023-04-15T00:09:29.276Z,149647.59
2023-04-15T00:11:59.708Z,150198.59
2023-04-15T00:14:28.411Z,150196.00
2023-04-15T00:17:01.054Z,150184.41
2023-04-15T00:19:30.804Z,150180.53
2023-04-15T00:21:58.778Z,150175.38
2023-04-15T00:24:28.305Z,150201.13
2023-04-15T00:26:56.176Z,150291.44
2023-04-15T00:29:25.328Z,150343.03
2023-04-15T00:31:54.783Z,150348.19
2023-04-15T00:34:22.857Z,150412.69
2023-04-15T00:36:53.946Z,150384.28
2023-04-15T00:39:22.753Z,150386.88
2023-04-15T00:41:50.975Z,150317.19
2023-04-15T00:44:20.108Z,150313.31
2023-04-15T00:46:49.089Z,150398.50
2023-04-15T00:49:20.755Z,150368.81
2023-04-15T00:51:56.294Z,150361.09
2023-04-15T00:54:24.204Z,150345.59
2023-04-15T00:56:53.118Z,150317.19
2023-04-15T00:59:25.124Z,150297.88
2023-04-15T01:01:53.752Z,150260.44
2023-04-15T01:04:21.997Z,150234.69
2023-04-15T01:06:50.058Z,150190.84
2023-04-15T01:09:19.628Z,150150.84
2023-04-15T01:11:47.731Z,150185.69
2023-04-15T01:14:17.535Z,150202.41
2023-04-15T01:16:45.713Z,150180.53
2023-04-15T01:19:17.721Z,150206.28
2023-04-15T01:21:47.054Z,150265.63
2023-04-15T01:24:19.014Z,150254.03
2023-04-15T01:26:49.844Z,150238.56
2023-04-15T01:29:18.678Z,150226.94
2023-04-15T01:31:52.900Z,150185.69
2023-04-15T01:34:23.910Z,150141.88
2023-04-15T01:36:58.512Z,150123.81
2023-04-15T01:39:28.647Z,150077.41
2023-04-15T01:41:58.349Z,149979.50
2023-04-15T01:44:28.061Z,150092.84
2023-04-15T01:47:07.088Z,150065.81
2023-04-15T01:49:35.481Z,150015.56
2023-04-15T01:52:33.576Z,149996.22
2023-04-15T01:55:02.170Z,149987.19
2023-04-15T01:57:31.441Z,149951.13
2023-04-15T01:59:59.363Z,149976.91
2023-04-15T02:02:27.335Z,149966.59
2023-04-15T02:04:55.777Z,149945.97
2023-04-15T02:07:24.258Z,149931.78
2023-04-15T02:09:52.300Z,149945.97
2023-04-15T02:12:21.195Z,149909.91
2023-04-15T02:14:50.406Z,149911.22
2023-04-15T02:17:19.429Z,149902.19
2023-04-15T02:19:48.208Z,149871.25
2023-04-15T02:22:18.651Z,149842.94
2023-04-15T02:24:47.836Z,149787.56
2023-04-15T02:27:18.832Z,149773.38
2023-04-15T02:29:47.385Z,149797.88
2023-04-15T02:32:18.659Z,149801.75
2023-04-15T02:34:46.551Z,149747.66
2023-04-15T02:37:16.105Z,149795.28
2023-04-15T02:39:45.211Z,149791.44
2023-04-15T02:42:13.244Z,149777.25
2023-04-15T02:44:41.063Z,149774.69
2023-04-15T02:47:09.011Z,149763.09
2023-04-15T02:49:38.369Z,149827.47
2023-04-15T02:52:07.844Z,149830.06
2023-04-15T02:54:35.780Z,149823.59
2023-04-15T02:57:06.215Z,149824.88
2023-04-15T02:59:34.209Z,149786.28
2023-04-15T03:02:02.175Z,149773.38
2023-04-15T03:04:32.119Z,149809.47
2023-04-15T03:07:02.822Z,149860.97
2023-04-15T03:09:30.721Z,149862.28
2023-04-15T03:11:58.506Z,149854.53
2023-04-15T03:14:28.058Z,149824.88
2023-04-15T03:16:56.135Z,149822.31
2023-04-15T03:19:24.065Z,149806.91
2023-04-15T03:21:55.385Z,149859.69
2023-04-15T03:24:24.790Z,149773.38
2023-04-15T03:26:52.777Z,149745.09
2023-04-15T03:29:21.954Z,149751.53
2023-04-15T03:31:49.906Z,149801.75
2023-04-15T03:34:17.836Z,149819.75
2023-04-15T03:36:46.932Z,149842.94
2023-04-15T03:39:16.095Z,149862.28
2023-04-15T03:41:45.755Z,149866.13
2023-04-15T03:44:13.802Z,149864.84
2023-04-15T03:46:41.710Z,149863.56
2023-04-15T03:49:09.953Z,149878.97
2023-04-15T03:51:37.905Z,149882.84
2023-04-15T03:54:05.940Z,149911.22
2023-04-15T03:56:33.966Z,149846.81
2023-04-15T03:59:04.238Z,149878.97
2023-04-15T04:01:33.362Z,149866.13
2023-04-15T04:04:01.672Z,149796.59
2023-04-15T04:06:29.856Z,149810.75
2023-04-15T04:09:01.693Z,149770.81
2023-04-15T04:11:29.669Z,149693.59
2023-04-15T04:13:59.035Z,149680.72
2023-04-15T04:16:29.540Z,149732.22
2023-04-15T04:18:57.615Z,149656.25
2023-04-15T04:21:34.113Z,149598.34
2023-04-15T04:24:01.992Z,149590.66
2023-04-15T04:26:29.801Z,149554.59
2023-04-15T04:28:58.925Z,149535.34
2023-04-15T04:31:28.574Z,149474.88
2023-04-15T04:33:56.566Z,149541.72
2023-04-15T04:36:24.569Z,149523.75
2023-04-15T04:38:53.595Z,149519.91
2023-04-15T04:41:21.540Z,149476.19
2023-04-15T04:43:49.393Z,149444.00
2023-04-15T04:46:17.456Z,149423.44
2023-04-15T04:48:47.281Z,149413.16
2023-04-15T04:51:15.284Z,149433.69
2023-04-15T04:53:43.411Z,149397.72
2023-04-15T04:56:14.084Z,149396.44
2023-04-15T04:58:42.435Z,149418.31
2023-04-15T05:01:10.636Z,149451.72
2023-04-15T05:03:39.353Z,149450.44
2023-04-15T05:06:08.928Z,149451.72
2023-04-15T05:08:40.568Z,149489.00
2023-04-15T05:11:12.099Z,149481.31
2023-04-15T05:13:40.890Z,149456.88
2023-04-15T05:16:17.865Z,149481.31
2023-04-15T05:18:45.867Z,149494.16
2023-04-15T05:21:15.294Z,149561.06
2023-04-15T05:23:51.819Z,149589.38
2023-04-15T05:26:21.757Z,149593.25
2023-04-15T05:28:50.228Z,149691.03
2023-04-15T05:31:21.157Z,149772.09
2023-04-15T05:33:49.181Z,149808.19
2023-04-15T05:36:18.649Z,149799.16
2023-04-15T05:38:46.949Z,149871.25
2023-04-15T05:41:19.073Z,149920.22
2023-04-15T05:43:48.773Z,149975.63
2023-04-15T05:46:16.651Z,150043.88
2023-04-15T05:48:47.564Z,150139.28
2023-04-15T05:51:19.289Z,150233.41
2023-04-15T05:53:59.720Z,150265.63
2023-04-15T05:56:30.697Z,150299.19
2023-04-15T05:59:01.830Z,150334.00
2023-04-15T06:01:38.629Z,150349.47
2023-04-15T06:04:13.179Z,150379.13
2023-04-15T06:07:27.756Z,150408.81
2023-04-15T06:10:41.592Z,150508.19
2023-04-15T06:13:13.983Z,150472.06
2023-04-15T06:15:43.162Z,150533.97
2023-04-15T06:18:11.754Z,150559.88
2023-04-15T06:20:41.778Z,150584.41
2023-04-15T06:23:12.720Z,150620.56
2023-04-15T06:25:42.206Z,150689.00
2023-04-15T06:28:10.420Z,150708.34
2023-04-15T06:30:38.687Z,150758.72
2023-04-15T06:33:07.711Z,150780.69
2023-04-15T06:35:35.612Z,150840.13
2023-04-15T06:38:03.409Z,150859.53
2023-04-15T06:40:35.649Z,150934.47
2023-04-15T06:43:05.009Z,150926.69
2023-04-15T06:45:33.560Z,150906.06
2023-04-15T06:48:01.501Z,150877.59
2023-04-15T06:50:29.495Z,150912.53
2023-04-15T06:52:58.417Z,150903.47
2023-04-15T06:55:26.319Z,150959.03
2023-04-15T06:57:56.630Z,150982.28
2023-04-15T07:00:29.736Z,150997.81
2023-04-15T07:02:57.833Z,151028.81
2023-04-15T07:05:26.713Z,151056.00
2023-04-15T07:07:58.365Z,151061.19
2023-04-15T07:10:26.578Z,151121.97
2023-04-15T07:12:58.189Z,151182.81
2023-04-15T07:15:26.145Z,151169.84
2023-04-15T07:17:56.525Z,151242.31
2023-04-15T07:20:24.420Z,151206.06
2023-04-15T07:22:53.272Z,151234.56
2023-04-15T07:25:21.615Z,151288.91
2023-04-15T07:27:49.513Z,151303.09
2023-04-15T07:30:19.404Z,151338.06
2023-04-15T07:33:02.192Z,151281.13
2023-04-15T07:39:11.509Z,151415.72
2023-04-15T07:41:41.757Z,151420.88
2023-04-15T07:44:12.983Z,151379.47
2023-04-15T07:46:45.200Z,151353.63
2023-04-15T07:49:14.536Z,151322.53
2023-04-15T07:51:44.404Z,151358.75
2023-04-15T07:54:49.722Z,151343.25
2023-04-15T07:57:19.664Z,151379.47
2023-04-15T08:00:07.698Z,151431.25
2023-04-15T08:02:38.973Z,151462.34
2023-04-15T08:05:43.520Z,151489.53
2023-04-15T08:08:12.227Z,151480.44
2023-04-15T08:10:45.664Z,151524.47
2023-04-15T08:13:23.827Z,151553.00
2023-04-15T08:16:20.712Z,151562.06
2023-04-15T08:19:04.327Z,151630.72
2023-04-15T08:21:43.138Z,151501.19
2023-04-15T08:24:26.472Z,151457.19
2023-04-15T08:26:54.544Z,151475.25
2023-04-15T08:29:22.500Z,151472.69
2023-04-15T08:31:56.476Z,151436.44
2023-04-15T08:34:29.048Z,151392.44
2023-04-15T08:37:00.284Z,151351.03
2023-04-15T08:39:29.395Z,151385.97
2023-04-15T08:42:07.180Z,151373.00
2023-04-15T08:44:36.948Z,151345.84
2023-04-15T08:47:11.068Z,151351.03
2023-04-15T08:49:41.806Z,151376.88
2023-04-15T08:52:28.818Z,151353.63
2023-04-15T08:55:01.372Z,151313.47
2023-04-15T08:57:30.527Z,151317.34
2023-04-15T09:00:05.642Z,151314.75
2023-04-15T09:02:36.955Z,151283.72
2023-04-15T09:05:07.918Z,151272.06
2023-04-15T09:07:38.153Z,151281.13
2023-04-15T09:10:08.467Z,151317.34
2023-04-15T09:12:37.008Z,151305.69
2023-04-15T09:15:05.403Z,151286.31
2023-04-15T09:17:35.718Z,151268.19
2023-04-15T09:20:14.109Z,151257.81
2023-04-15T09:22:45.487Z,151348.44
2023-04-15T09:25:32.192Z,151349.72
2023-04-15T09:28:04.252Z,151383.38
2023-04-15T09:30:32.570Z,151397.63
2023-04-15T09:33:04.984Z,151384.66
2023-04-15T09:35:37.960Z,151424.78
2023-04-15T09:38:07.375Z,151384.66
2023-04-15T09:40:41.249Z,151397.63
2023-04-15T09:43:12.799Z,151354.91
2023-04-15T09:45:50.177Z,151462.34
2023-04-15T09:48:22.146Z,151441.63
2023-04-15T09:50:53.750Z,151427.38
2023-04-15T09:53:23.365Z,151448.09
2023-04-15T09:55:52.616Z,151461.06
2023-04-15T09:58:21.530Z,151545.22
2023-04-15T10:00:51.972Z,151547.81
2023-04-15T10:03:24.782Z,151622.94
2023-04-15T10:05:55.875Z,151639.81
2023-04-15T10:08:26.230Z,151665.75
2023-04-15T10:10:57.123Z,151646.28
2023-04-15T10:13:26.882Z,151622.94
2023-04-15T10:15:59.946Z,151582.75
2023-04-15T10:18:30.014Z,151597.00
2023-04-15T10:21:02.568Z,151551.69
2023-04-15T10:23:40.002Z,151545.22
2023-04-15T10:26:23.293Z,151581.47
2023-04-15T10:29:16.354Z,151578.88
2023-04-15T10:31:49.940Z,151553.00
2023-04-15T10:34:26.308Z,151547.81
2023-04-15T10:37:12.516Z,151533.53
2023-04-15T10:39:46.464Z,151573.72
2023-04-15T10:42:19.646Z,151532.25
2023-04-15T10:44:59.549Z,151514.16
2023-04-15T10:47:31.409Z,151563.38
2023-04-15T10:50:06.199Z,151558.19
2023-04-15T10:52:43.497Z,151524.47
2023-04-15T10:55:20.200Z,151484.34
2023-04-15T10:57:53.625Z,151475.25
2023-04-15T11:00:26.948Z,151553.00
2023-04-15T11:02:57.235Z,151546.50
2023-04-15T11:05:54.695Z,151530.94
2023-04-15T11:08:59.764Z,151496.00
2023-04-15T11:12:10.005Z,151486.94
2023-04-15T11:14:43.544Z,151498.59
2023-04-15T11:17:11.771Z,151498.59
2023-04-15T11:19:41.387Z,151489.53
2023-04-15T11:22:10.639Z,151457.19
2023-04-15T11:24:48.792Z,151436.44
2023-04-15T11:27:23.431Z,151453.28
2023-04-15T11:29:53.205Z,151466.25
2023-04-15T11:32:25.441Z,151436.44
2023-04-15T11:34:58.414Z,151490.81
2023-04-15T11:37:30.564Z,151490.81
2023-04-15T11:40:02.627Z,151496.00
2023-04-15T11:42:42.807Z,151496.00
2023-04-15T11:45:33.062Z,151432.56
2023-04-15T11:48:09.422Z,151432.56
2023-04-15T11:51:21.671Z,151435.16
2023-04-15T11:54:19.797Z,151533.53
2023-04-15T11:56:54.555Z,151547.81
2023-04-15T11:59:23.793Z,151571.13
2023-04-15T12:01:54.293Z,151476.56
2023-04-15T12:04:25.915Z,151537.44
2023-04-15T12:06:56.676Z,151489.53
2023-04-15T12:09:30.360Z,151521.94
2023-04-15T12:12:01.067Z,151556.88
2023-04-15T12:14:31.197Z,151519.34
2023-04-15T12:17:01.531Z,151524.47
2023-04-15T12:19:32.496Z,151503.78
2023-04-15T12:22:04.366Z,151571.13
2023-04-15T12:24:33.222Z,151555.59
2023-04-15T12:27:06.175Z,151536.13
2023-04-15T12:29:35.308Z,151448.09
2023-04-15T12:32:30.884Z,151462.34
2023-04-15T12:35:00.063Z,151477.88
2023-04-15T12:37:29.927Z,151485.63
2023-04-15T12:39:59.187Z,151480.44
2023-04-15T12:42:29.751Z,151407.97
2023-04-15T12:44:58.124Z,151384.66
2023-04-15T12:47:26.293Z,151418.31
2023-04-15T12:49:54.265Z,151415.72
2023-04-15T12:52:22.295Z,151461.06
2023-04-15T12:54:56.136Z,151413.13
2023-04-15T12:57:25.960Z,151388.56
2023-04-15T12:59:55.718Z,151400.22
2023-04-15T13:02:25.734Z,151439.03
2023-04-15T13:04:55.296Z,151453.28
2023-04-15T13:07:23.240Z,151404.09
2023-04-15T13:09:51.215Z,151400.22
2023-04-15T13:12:23.328Z,151393.72
2023-04-15T13:14:53.860Z,151376.88
2023-04-15T13:17:23.842Z,151380.78
2023-04-15T13:19:53.673Z,151422.19
2023-04-15T13:22:21.899Z,151397.63
2023-04-15T13:24:52.499Z,151361.34
2023-04-15T13:27:20.571Z,151309.56
2023-04-15T13:29:53.130Z,151321.22
2023-04-15T13:32:35.084Z,151306.97
2023-04-15T13:35:05.300Z,151303.09
2023-04-15T13:37:37.684Z,151301.84
2023-04-15T13:40:07.463Z,151253.94
2023-04-15T13:42:35.575Z,151266.88
2023-04-15T13:45:03.802Z,151274.66
2023-04-15T13:47:33.231Z,151291.50
2023-04-15T13:50:01.425Z,151252.63
2023-04-15T13:52:30.381Z,151229.38
2023-04-15T13:55:11.774Z,151260.41
2023-04-15T13:57:48.982Z,151209.94
2023-04-15T14:00:17.923Z,151270.75
2023-04-15T14:02:47.612Z,151212.53
2023-04-15T14:05:16.009Z,151228.09
2023-04-15T14:07:44.142Z,151199.59
2023-04-15T14:10:12.363Z,151187.97
2023-04-15T14:12:40.536Z,151159.44
2023-04-15T14:15:09.433Z,151225.50
2023-04-15T14:17:37.856Z,151226.78
2023-04-15T14:20:10.175Z,151182.81
2023-04-15T14:22:38.553Z,151154.28
2023-04-15T14:25:07.635Z,151175.03
2023-04-15T14:27:36.119Z,151172.44
2023-04-15T14:30:09.371Z,151131.03
2023-04-15T14:32:37.521Z,151159.44
2023-04-15T14:35:10.907Z,151152.97
2023-04-15T14:37:44.799Z,151154.28
2023-04-15T14:40:14.555Z,151156.88
2023-04-15T14:42:45.858Z,151131.03
2023-04-15T14:45:20.464Z,151128.44
2023-04-15T14:48:20.080Z,151155.56
2023-04-15T14:50:54.321Z,151133.59
2023-04-15T14:53:41.186Z,151155.56
2023-04-15T14:56:10.433Z,151133.59
2023-04-15T14:59:01.362Z,151107.72
2023-04-15T15:01:30.162Z,151079.28
2023-04-15T15:03:59.344Z,151129.72
2023-04-15T15:06:30.167Z,151110.31
2023-04-15T15:09:01.773Z,151131.03
2023-04-15T15:11:38.749Z,151149.09
2023-04-15T15:14:07.836Z,151141.31
2023-04-15T15:16:37.155Z,151106.44
2023-04-15T15:19:08.588Z,151099.97
2023-04-15T15:21:41.121Z,151110.31
2023-04-15T15:24:09.393Z,151101.25
2023-04-15T15:26:38.631Z,151080.59
2023-04-15T15:29:06.886Z,151088.31
2023-04-15T15:31:36.247Z,151045.63
2023-04-15T15:34:05.358Z,151076.69
2023-04-15T15:36:33.363Z,151053.41
2023-04-15T15:39:23.509Z,151071.53
2023-04-15T15:41:53.700Z,151054.69
2023-04-15T15:44:22.626Z,151056.00
2023-04-15T15:46:52.894Z,151063.75
2023-04-15T15:49:21.041Z,151063.75
2023-04-15T15:51:49.895Z,151067.63
2023-04-15T15:54:19.188Z,151061.19
2023-04-15T15:56:48.345Z,151043.06
2023-04-15T15:59:18.254Z,151040.47
2023-04-15T16:01:48.467Z,151040.47
2023-04-15T16:04:16.650Z,151028.81
2023-04-15T16:06:46.688Z,151027.53
2023-04-15T16:09:16.852Z,151019.81
2023-04-15T16:11:46.630Z,151017.22
2023-04-15T16:14:15.655Z,151010.75
2023-04-15T16:16:43.753Z,151015.94
2023-04-15T16:19:11.794Z,151034.00
2023-04-15T16:21:39.771Z,151019.81
2023-04-15T16:24:08.183Z,151018.50
2023-04-15T16:26:37.561Z,151022.41
2023-04-15T16:29:07.215Z,151017.22
2023-04-15T16:31:35.687Z,151010.75
2023-04-15T16:34:04.287Z,151013.34
2023-04-15T16:36:32.763Z,151010.75
2023-04-15T16:39:00.684Z,151014.63
2023-04-15T16:41:29.083Z,151013.34
2023-04-15T16:43:59.602Z,151012.03
2023-04-15T16:46:29.858Z,151006.88
2023-04-15T16:48:58.558Z,151004.28
2023-04-15T16:51:28.408Z,150996.50
2023-04-15T16:53:56.272Z,150999.09
2023-04-15T16:56:24.197Z,151000.41
2023-04-15T16:58:53.295Z,151009.44
2023-04-15T17:01:22.284Z,150995.22
2023-04-15T17:03:55.393Z,151010.75
2023-04-15T17:06:26.350Z,151001.69
2023-04-15T17:08:54.333Z,150996.50
2023-04-15T17:11:22.443Z,150986.16
2023-04-15T17:13:50.636Z,150999.09
2023-04-15T17:16:18.633Z,150999.09
2023-04-15T17:18:47.342Z,150996.50
2023-04-15T17:21:17.706Z,150981.00
2023-04-15T17:23:45.723Z,150988.75
2023-04-15T17:26:15.539Z,150992.63
2023-04-15T17:28:43.721Z,150990.03
2023-04-15T17:31:12.134Z,150986.16
2023-04-15T17:33:58.815Z,150983.56
2023-04-15T17:36:31.069Z,150956.47
2023-04-15T17:39:00.040Z,150988.75
2023-04-15T17:41:27.888Z,150966.81
2023-04-15T17:43:55.803Z,150974.53
2023-04-15T17:46:24.139Z,150969.38
2023-04-15T17:48:54.312Z,150968.09
2023-04-15T17:51:22.244Z,150968.09
2023-04-15T17:53:51.534Z,150978.41
2023-04-15T17:56:19.417Z,150981.00
2023-04-15T17:58:47.545Z,150968.09
2023-04-15T18:01:15.585Z,150965.50
2023-04-15T18:03:43.792Z,150970.69
2023-04-15T18:06:12.865Z,150977.09
2023-04-15T18:08:41.889Z,150968.09
2023-04-15T18:11:16.060Z,150971.94
2023-04-15T18:13:43.963Z,150964.22
2023-04-15T18:16:12.050Z,150962.94
2023-04-15T18:18:40.044Z,150973.22
2023-04-15T18:21:07.957Z,150977.09
2023-04-15T18:23:36.377Z,150964.22
2023-04-15T18:26:04.404Z,150973.22
2023-04-15T18:28:33.924Z,150971.94
2023-04-15T18:31:02.308Z,150975.81
2023-04-15T18:33:30.878Z,150971.94
2023-04-15T18:35:59.922Z,150970.69
2023-04-15T18:38:27.857Z,150981.00
2023-04-15T18:40:55.755Z,150970.69
2023-04-15T18:43:23.614Z,150949.97
2023-04-15T18:45:54.985Z,150965.50
2023-04-15T18:48:24.032Z,150973.22
2023-04-15T18:50:54.084Z,150975.81
2023-04-15T18:53:22.123Z,150993.94
2023-04-15T18:56:07.500Z,150987.47
2023-04-15T18:59:25.767Z,150993.94
2023-04-15T19:01:54.677Z,150978.41
2023-04-15T19:04:49.622Z,150995.22
2023-04-15T19:07:19.894Z,150993.94
2023-04-15T19:09:49.836Z,150999.09
2023-04-15T19:12:17.712Z,150999.09
2023-04-15T19:14:45.858Z,150991.34
2023-04-15T19:17:15.216Z,150999.09
2023-04-15T19:19:43.637Z,150997.81
2023-04-15T19:22:12.419Z,151001.69
2023-04-15T19:24:40.976Z,150999.09
2023-04-15T19:27:10.759Z,150996.50
2023-04-15T19:29:38.810Z,151005.56
2023-04-15T19:32:06.882Z,151005.56
2023-04-15T19:34:37.438Z,151005.56
2023-04-15T19:37:05.317Z,151010.75
2023-04-15T19:39:33.861Z,151005.56
2023-04-15T19:42:02.906Z,151009.44
2023-04-15T19:44:34.101Z,151004.28
2023-04-15T19:47:02.358Z,151009.44
2023-04-15T19:49:31.184Z,151017.22
2023-04-15T19:52:04.198Z,151028.81
2023-04-15T19:54:32.259Z,151021.09
2023-04-15T19:57:01.664Z,151027.53
2023-04-15T19:59:29.688Z,151032.69
2023-04-15T20:01:58.431Z,151035.28
2023-04-15T20:04:27.440Z,151010.75
2023-04-15T20:06:58.081Z,151040.47
2023-04-15T20:09:29.609Z,151044.34
2023-04-15T20:12:46.692Z,151035.28
2023-04-15T20:14:48.083Z,151023.69
2023-04-15T20:17:16.205Z,151056.00
2023-04-15T20:19:44.311Z,151045.63
2023-04-15T20:22:14.623Z,151058.59
2023-04-15T20:24:45.166Z,151056.00
2023-04-15T20:27:14.079Z,151065.06
2023-04-15T20:29:42.071Z,151062.47
2023-04-15T20:32:11.627Z,151067.63
2023-04-15T20:34:40.107Z,151065.06
2023-04-15T20:37:08.336Z,151087.00
2023-04-15T20:39:36.377Z,151072.81
2023-04-15T20:42:10.087Z,151074.13
2023-04-15T20:44:39.884Z,151071.53
2023-04-15T20:47:08.615Z,151087.00
2023-04-15T20:49:37.237Z,151098.66
2023-04-15T20:52:07.994Z,151079.28
2023-04-15T20:54:36.085Z,151092.19
2023-04-15T20:57:05.510Z,151061.19
2023-04-15T20:59:34.766Z,151087.00
2023-04-15T21:02:03.126Z,151081.84
2023-04-15T21:04:31.411Z,151081.84
2023-04-15T21:07:01.748Z,151101.25
2023-04-15T21:09:30.035Z,151090.91
2023-04-15T21:12:01.681Z,151084.41
2023-04-15T21:14:33.547Z,151101.25
2023-04-15T21:17:07.908Z,151084.41
2023-04-15T21:19:39.177Z,151092.19
2023-04-15T21:22:08.920Z,151079.28
2023-04-15T21:24:38.031Z,151076.69
2023-04-15T21:27:06.420Z,151083.13
2023-04-15T21:29:35.677Z,151075.41
2023-04-15T21:32:03.682Z,151080.59
2023-04-15T21:34:41.468Z,151081.84
2023-04-15T21:37:12.959Z,151070.22
2023-04-15T21:39:41.727Z,151090.91
2023-04-15T21:42:09.719Z,151089.59
2023-04-15T21:44:43.352Z,151107.72
2023-04-15T21:47:11.934Z,151085.72
2023-04-15T21:49:41.440Z,151097.38
2023-04-15T21:52:09.541Z,151087.00
2023-04-15T21:54:39.761Z,151110.31
2023-04-15T21:57:10.135Z,151102.53
2023-04-15T21:59:39.736Z,151084.41
2023-04-15T22:02:08.400Z,151097.38
2023-04-15T22:04:37.614Z,151094.78
2023-04-15T22:07:05.850Z,151105.13
2023-04-15T22:09:35.089Z,151092.19
2023-04-15T22:12:05.664Z,151109.00
2023-04-15T22:14:35.300Z,151124.53
2023-04-15T22:17:11.686Z,151102.53
2023-04-15T22:19:42.183Z,151099.97
2023-04-15T22:22:10.616Z,151102.53
2023-04-15T22:24:41.226Z,151099.97
2023-04-15T22:27:09.528Z,151110.31
2023-04-15T22:29:44.452Z,151099.97
2023-04-15T22:32:21.300Z,151127.13
2023-04-15T22:34:52.034Z,151114.19
2023-04-15T22:37:20.417Z,151114.19
2023-04-15T22:39:50.875Z,151103.84
2023-04-15T22:42:20.002Z,151115.47
2023-04-15T22:44:49.952Z,151099.97
2023-04-15T22:47:20.167Z,151107.72
2023-04-15T22:52:33.809Z,151097.38
2023-04-15T22:55:31.727Z,151127.13
2023-04-15T22:58:56.387Z,151119.38
2023-04-15T23:01:24.506Z,151107.72
2023-04-15T23:03:58.297Z,151133.59
2023-04-15T23:06:34.814Z,151147.81
2023-04-15T23:09:09.260Z,151115.47
2023-04-15T23:11:39.499Z,151129.72
2023-04-15T23:14:10.707Z,151132.31
2023-04-15T23:16:45.828Z,151159.44
2023-04-15T23:19:15.132Z,151145.22
2023-04-15T23:22:07.001Z,151143.91
2023-04-15T23:24:35.936Z,151142.63
2023-04-15T23:27:05.943Z,151137.44
2023-04-15T23:29:42.440Z,151120.66
2023-04-15T23:32:16.787Z,151145.22
2023-04-15T23:34:46.175Z,151145.22
2023-04-15T23:37:14.067Z,151143.91
2023-04-15T23:39:42.017Z,151124.53
2023-04-15T23:42:09.981Z,151149.09
2023-04-15T23:44:41.194Z,151146.50
2023-04-15T23:47:09.271Z,151149.09
2023-04-15T23:49:37.597Z,151156.88
2023-04-15T23:52:07.180Z,151156.88
2023-04-15T23:54:35.180Z,151156.88
